Time;durP1;ratioP1;P1;durP2;ratioP2;P2;SDS_P1;SDS_P2;PMS_P1;PMS_P2;Temp;Humidity;BMP_temperature;BMP_pressure;BME280_temperature;BME280_humidity;BME280_pressure;Samples;Min_cycle;Max_cycle;Signal;HPM_P1;HPM_P2
2023/06/04 00:02:16;;;;;;;1.30;1.10;;;23.30;71.60;;;;;;5094332;28;20537;-82
2023/06/04 00:04:42;;;;;;;1.40;1.17;;;23.20;71.70;;;;;;5094111;28;20517;-82
2023/06/04 00:07:10;;;;;;;2.03;1.07;;;23.30;72.00;;;;;;5094223;28;20447;-82
2023/06/04 00:09:37;;;;;;;1.53;0.93;;;23.20;72.40;;;;;;5094185;28;20446;-82
2023/06/04 00:12:04;;;;;;;1.50;1.40;;;23.20;72.80;;;;;;5094099;28;20454;-82
2023/06/04 00:14:31;;;;;;;1.90;0.90;;;23.20;71.80;;;;;;5094048;28;20988;-82
2023/06/04 00:16:58;;;;;;;1.63;1.13;;;23.20;71.40;;;;;;5093958;28;20442;-82
2023/06/04 00:19:25;;;;;;;1.50;1.10;;;23.20;69.90;;;;;;5093988;28;20489;-82
2023/06/04 00:21:52;;;;;;;1.20;1.07;;;23.20;70.50;;;;;;5093961;28;20451;-82
2023/06/04 00:24:20;;;;;;;1.10;1.00;;;23.20;70.90;;;;;;5094396;28;20428;-82
2023/06/04 00:26:47;;;;;;;1.43;1.10;;;23.20;71.00;;;;;;5094157;28;20436;-82
2023/06/04 00:29:13;;;;;;;1.27;1.10;;;23.20;70.70;;;;;;5093857;28;20442;-82
2023/06/04 00:31:40;;;;;;;1.57;1.10;;;23.20;70.70;;;;;;5093802;28;20435;-82
2023/06/04 00:34:07;;;;;;;1.30;1.10;;;23.20;70.80;;;;;;5093579;28;20484;-82
2023/06/04 00:36:34;;;;;;;1.40;1.17;;;23.20;71.60;;;;;;5093822;28;20432;-82
2023/06/04 00:39:01;;;;;;;1.30;1.17;;;23.20;70.50;;;;;;5093805;28;20575;-83
2023/06/04 00:41:29;;;;;;;1.10;1.00;;;23.20;71.60;;;;;;5093744;28;20500;-82
2023/06/04 00:43:56;;;;;;;1.43;1.10;;;23.20;71.40;;;;;;5093469;28;20443;-82
2023/06/04 00:46:25;;;;;;;1.30;0.90;;;23.20;71.40;;;;;;5093521;28;20537;-82
2023/06/04 00:48:52;;;;;;;1.30;1.10;;;23.20;71.40;;;;;;5093589;28;20472;-82
2023/06/04 00:51:19;;;;;;;1.20;1.00;;;23.20;71.70;;;;;;5093558;28;20440;-82
2023/06/04 00:53:46;;;;;;;2.07;1.00;;;23.20;71.50;;;;;;5093421;28;20448;-82
2023/06/04 00:56:13;;;;;;;1.30;0.93;;;23.20;71.40;;;;;;5093564;28;20443;-82
2023/06/04 00:58:42;;;;;;;1.50;1.00;;;23.20;72.20;;;;;;5093234;28;21153;-82
2023/06/04 01:01:18;;;;;;;1.40;1.27;;;23.20;71.50;;;;;;5093346;28;20958;-82
2023/06/04 01:03:50;;;;;;;1.30;0.97;;;23.20;72.10;;;;;;5093324;28;20439;-82
2023/06/04 01:06:22;;;;;;;3.83;1.03;;;23.20;71.80;;;;;;5093495;28;20444;-82
2023/06/04 01:08:54;;;;;;;1.10;1.00;;;23.20;72.50;;;;;;5093415;28;20856;-82
2023/06/04 01:11:32;;;;;;;1.50;1.40;;;23.20;71.90;;;;;;5093100;28;20938;-82
2023/06/04 01:14:00;;;;;;;1.27;1.03;;;23.20;73.70;;;;;;5093122;28;20443;-82
2023/06/04 01:16:29;;;;;;;1.30;1.10;;;23.20;71.30;;;;;;5093226;28;20805;-86
2023/06/04 01:18:59;;;;;;;1.17;1.00;;;23.40;72.20;;;;;;5093030;28;20530;-82
2023/06/04 01:21:29;;;;;;;1.30;1.07;;;23.30;71.80;;;;;;5093256;28;20550;-82
2023/06/04 01:24:01;;;;;;;1.33;1.23;;;23.20;71.80;;;;;;5093118;28;20864;-82
2023/06/04 01:26:29;;;;;;;1.70;1.20;;;23.10;72.00;;;;;;5093184;28;20472;-82
2023/06/04 01:28:56;;;;;;;1.20;0.97;;;23.20;71.70;;;;;;5093107;28;20462;-82
2023/06/04 01:31:25;;;;;;;1.30;1.10;;;23.20;72.70;;;;;;5093083;28;20433;-82
2023/06/04 01:33:53;;;;;;;1.70;1.17;;;23.20;71.70;;;;;;5093038;28;21004;-82
2023/06/04 01:36:20;;;;;;;1.20;1.10;;;23.20;72.30;;;;;;5093010;28;20436;-89
2023/06/04 01:38:47;;;;;;;2.40;1.03;;;23.10;70.70;;;;;;5093026;28;20484;-82
2023/06/04 01:41:20;;;;;;;1.20;0.90;;;23.10;70.50;;;;;;5093239;28;20440;-82
2023/06/04 01:43:46;;;;;;;1.40;1.10;;;23.10;70.50;;;;;;5092789;28;20939;-82
2023/06/04 01:46:13;;;;;;;1.20;1.10;;;23.10;70.30;;;;;;5092979;28;20471;-82
2023/06/04 01:48:41;;;;;;;1.93;1.33;;;23.10;70.10;;;;;;5093004;28;20883;-82
2023/06/04 01:51:08;;;;;;;1.20;1.07;;;23.10;70.20;;;;;;5092807;28;20922;-82
2023/06/04 01:53:35;;;;;;;1.20;0.90;;;23.10;70.40;;;;;;5092868;28;20438;-82
2023/06/04 01:56:02;;;;;;;1.20;0.90;;;23.10;70.50;;;;;;5093004;28;20438;-82
2023/06/04 01:58:29;;;;;;;1.20;1.10;;;23.10;71.20;;;;;;5092756;28;20481;-82
2023/06/04 02:00:59;;;;;;;1.30;1.20;;;23.10;70.90;;;;;;5092827;28;20522;-82
2023/06/04 02:03:26;;;;;;;1.17;0.90;;;23.10;71.10;;;;;;5092569;28;20462;-82
2023/06/04 02:05:54;;;;;;;1.10;0.93;;;23.10;71.00;;;;;;5092669;28;20435;-82
2023/06/04 02:08:21;;;;;;;1.17;1.03;;;23.10;70.90;;;;;;5092847;28;20791;-82
2023/06/04 02:10:48;;;;;;;1.30;1.10;;;23.10;70.60;;;;;;5092666;28;20440;-82
2023/06/04 02:13:15;;;;;;;1.10;0.93;;;23.10;71.10;;;;;;5092754;28;20442;-82
2023/06/04 02:15:42;;;;;;;1.30;0.90;;;23.10;71.60;;;;;;5092779;28;20464;-82
2023/06/04 02:18:16;;;;;;;1.10;0.90;;;23.10;71.50;;;;;;5092568;28;20444;-82
2023/06/04 02:20:43;;;;;;;1.47;1.20;;;23.10;71.40;;;;;;5092721;28;20454;-82
2023/06/04 02:23:11;;;;;;;1.20;1.00;;;23.10;70.80;;;;;;5095646;28;20452;-82
2023/06/04 02:25:38;;;;;;;1.30;1.10;;;23.10;71.00;;;;;;5096184;28;20444;-82
2023/06/04 02:28:05;;;;;;;1.20;0.90;;;23.10;71.50;;;;;;5096375;28;20447;-90
2023/06/04 02:30:32;;;;;;;1.70;0.90;;;23.10;71.40;;;;;;5096162;28;20453;-84
2023/06/04 02:33:00;;;;;;;1.40;1.00;;;23.10;70.70;;;;;;5096015;28;20475;-82
2023/06/04 02:35:27;;;;;;;1.40;1.20;;;23.10;71.40;;;;;;5096182;28;20870;-82
2023/06/04 02:37:56;;;;;;;1.40;1.30;;;23.10;71.20;;;;;;5096031;28;20442;-82
2023/06/04 02:40:24;;;;;;;1.10;0.87;;;23.10;71.60;;;;;;5095850;28;21002;-82
2023/06/04 02:42:51;;;;;;;1.20;1.03;;;23.10;71.70;;;;;;5095891;28;20441;-83
2023/06/04 02:45:18;;;;;;;1.60;1.10;;;23.20;71.40;;;;;;5095720;28;20526;-82
2023/06/04 02:47:45;;;;;;;1.10;0.90;;;23.10;72.70;;;;;;5095846;28;21012;-82
2023/06/04 02:50:12;;;;;;;1.30;1.07;;;23.10;72.70;;;;;;5095865;28;20522;-92
2023/06/04 02:52:39;;;;;;;1.30;1.20;;;23.10;73.00;;;;;;5095714;28;20493;-81
2023/06/04 02:55:08;;;;;;;1.30;1.10;;;23.00;73.20;;;;;;5095579;28;20950;-91
2023/06/04 02:57:36;;;;;;;1.53;1.30;;;23.10;72.40;;;;;;5095600;28;20526;-81
2023/06/04 03:00:11;;;;;;;1.20;1.10;;;23.00;72.60;;;;;;5095532;28;20838;-81
2023/06/04 03:02:38;;;;;;;1.13;0.77;;;23.10;72.70;;;;;;5095572;28;20431;-82
2023/06/04 03:05:06;;;;;;;1.20;1.00;;;23.10;72.80;;;;;;5095487;28;20440;-81
2023/06/04 03:07:33;;;;;;;1.10;0.90;;;23.00;72.60;;;;;;5095638;28;20436;-81
2023/06/04 03:09:59;;;;;;;1.10;0.90;;;23.10;73.10;;;;;;5095255;28;20443;-82
2023/06/04 03:12:26;;;;;;;1.30;1.10;;;23.20;73.10;;;;;;5095319;28;20534;-81
2023/06/04 03:14:54;;;;;;;1.50;0.90;;;23.00;72.30;;;;;;5095216;28;20464;-81
2023/06/04 03:17:21;;;;;;;1.40;1.30;;;23.20;72.30;;;;;;5095188;28;20444;-81
2023/06/04 03:19:48;;;;;;;1.30;1.00;;;23.10;72.80;;;;;;5095193;28;20484;-82
2023/06/04 03:22:15;;;;;;;1.43;0.90;;;23.00;73.30;;;;;;5094994;28;20916;-82
2023/06/04 03:24:42;;;;;;;1.20;1.10;;;23.00;72.70;;;;;;5095169;28;20433;-82
2023/06/04 03:27:10;;;;;;;1.20;0.90;;;23.00;72.50;;;;;;5094971;28;20918;-81
2023/06/04 03:29:38;;;;;;;1.20;1.00;;;23.00;72.90;;;;;;5095180;28;20432;-82
2023/06/04 03:32:07;;;;;;;1.23;0.90;;;23.00;72.70;;;;;;5094916;28;20467;-82
2023/06/04 03:34:34;;;;;;;1.20;1.00;;;23.00;72.70;;;;;;5094816;28;20439;-83
2023/06/04 03:37:01;;;;;;;1.20;1.10;;;23.00;73.10;;;;;;5094968;28;20455;-81
2023/06/04 03:39:28;;;;;;;1.20;1.10;;;23.10;74.70;;;;;;5094727;28;20471;-81
2023/06/04 03:41:55;;;;;;;1.10;0.90;;;23.00;73.30;;;;;;5094924;28;20439;-87
2023/06/04 03:44:23;;;;;;;1.20;0.93;;;23.20;72.50;;;;;;5094777;28;20456;-82
2023/06/04 03:46:50;;;;;;;1.40;1.10;;;23.00;72.50;;;;;;5095017;28;20953;-82
2023/06/04 03:49:19;;;;;;;1.10;0.87;;;23.00;72.40;;;;;;5095003;28;20774;-82
2023/06/04 03:51:46;;;;;;;1.10;0.80;;;23.00;72.10;;;;;;5094507;28;20439;-82
2023/06/04 03:54:16;;;;;;;1.10;0.80;;;23.00;72.30;;;;;;5094612;28;20455;-92
2023/06/04 03:56:43;;;;;;;1.10;0.90;;;23.00;72.20;;;;;;5094593;28;20462;-82
2023/06/04 03:59:10;;;;;;;1.20;0.90;;;23.00;72.80;;;;;;5094336;28;20479;-86
2023/06/04 04:01:37;;;;;;;1.47;0.90;;;23.00;72.90;;;;;;5094428;28;20441;-82
2023/06/04 04:04:05;;;;;;;1.50;1.03;;;22.90;73.20;;;;;;5094182;28;20436;-82
2023/06/04 04:06:33;;;;;;;1.20;1.00;;;23.00;72.40;;;;;;5094271;28;20440;-82
2023/06/04 04:09:00;;;;;;;1.23;0.90;;;22.90;72.50;;;;;;5094211;28;20774;-82
2023/06/04 04:11:27;;;;;;;1.30;1.00;;;23.20;74.40;;;;;;5094252;28;20554;-82
2023/06/04 04:13:53;;;;;;;1.10;0.90;;;23.00;73.50;;;;;;5094037;28;20442;-82
2023/06/04 04:16:20;;;;;;;1.20;0.80;;;23.00;73.90;;;;;;5094122;28;20956;-82
2023/06/04 04:18:47;;;;;;;1.40;1.10;;;23.00;73.70;;;;;;5094061;28;20440;-82
2023/06/04 04:21:14;;;;;;;1.27;1.10;;;23.00;73.70;;;;;;5094050;28;20943;-82
2023/06/04 04:23:42;;;;;;;2.13;1.33;;;22.90;73.70;;;;;;5093975;28;20471;-82
2023/06/04 04:26:09;;;;;;;1.30;1.00;;;22.90;73.50;;;;;;5093910;28;20448;-82
2023/06/04 04:28:37;;;;;;;1.30;1.20;;;23.00;74.00;;;;;;5093822;28;20497;-81
2023/06/04 04:31:03;;;;;;;1.10;0.87;;;23.00;74.60;;;;;;5093604;28;20530;-82
2023/06/04 04:33:36;;;;;;;1.13;0.90;;;22.90;74.20;;;;;;5093573;28;20468;-82
2023/06/04 04:36:03;;;;;;;1.17;0.97;;;23.00;74.20;;;;;;5094082;28;20842;-82
2023/06/04 04:38:33;;;;;;;1.10;0.90;;;23.00;74.50;;;;;;5093651;28;20935;-82
2023/06/04 04:41:01;;;;;;;1.10;0.90;;;22.90;73.90;;;;;;5093640;28;20575;-81
2023/06/04 04:43:32;;;;;;;1.20;1.10;;;23.00;74.80;;;;;;5093732;28;20451;-92
2023/06/04 04:45:59;;;;;;;1.07;0.90;;;23.00;74.50;;;;;;5093249;28;20465;-82
2023/06/04 04:48:26;;;;;;;1.10;0.80;;;22.90;75.20;;;;;;5093509;28;20455;-82
2023/06/04 04:50:53;;;;;;;1.20;0.93;;;23.00;74.40;;;;;;5093500;28;20530;-92
2023/06/04 04:53:20;;;;;;;1.10;0.80;;;22.90;74.20;;;;;;5093473;28;20457;-83
2023/06/04 04:55:47;;;;;;;1.10;0.90;;;23.00;74.40;;;;;;5093365;28;20949;-81
2023/06/04 04:58:15;;;;;;;1.17;0.97;;;23.00;73.80;;;;;;5093510;28;20436;-82
2023/06/04 05:00:42;;;;;;;1.20;1.07;;;22.90;73.10;;;;;;5094054;28;20552;-82
2023/06/04 05:03:09;;;;;;;1.10;0.80;;;22.90;74.40;;;;;;5093400;28;20437;-92
2023/06/04 05:05:37;;;;;;;1.30;1.20;;;23.00;74.00;;;;;;5093192;28;20504;-81
2023/06/04 05:08:04;;;;;;;1.13;0.90;;;22.90;73.50;;;;;;5093549;28;20611;-81
2023/06/04 05:10:31;;;;;;;1.23;0.87;;;23.00;73.50;;;;;;5093210;28;20440;-82
2023/06/04 05:12:59;;;;;;;1.60;1.10;;;22.90;73.00;;;;;;5093310;28;20439;-82
2023/06/04 05:15:28;;;;;;;1.20;1.00;;;23.00;73.60;;;;;;5093027;28;20471;-81
2023/06/04 05:17:56;;;;;;;1.10;1.00;;;23.00;73.90;;;;;;5093145;28;20445;-92
2023/06/04 05:20:23;;;;;;;1.33;0.97;;;22.90;73.60;;;;;;5093244;28;20998;-81
2023/06/04 05:22:50;;;;;;;1.10;0.90;;;22.90;73.40;;;;;;5093030;28;20442;-81
2023/06/04 05:25:17;;;;;;;1.20;1.00;;;23.00;74.10;;;;;;5093264;28;20436;-81
2023/06/04 05:27:45;;;;;;;1.10;0.83;;;22.90;73.80;;;;;;5093161;28;20436;-91
2023/06/04 05:30:13;;;;;;;1.10;0.90;;;23.10;74.70;;;;;;5093159;28;20448;-82
2023/06/04 05:32:41;;;;;;;1.20;1.00;;;22.90;74.90;;;;;;5092935;28;20559;-81
2023/06/04 05:35:10;;;;;;;1.10;0.93;;;23.00;74.90;;;;;;5093002;28;20526;-81
2023/06/04 05:37:40;;;;;;;1.20;0.90;;;23.00;73.20;;;;;;5093181;28;20444;-81
2023/06/04 05:40:09;;;;;;;1.87;1.17;;;23.00;74.40;;;;;;5092870;28;20840;-82
2023/06/04 05:42:36;;;;;;;1.33;1.17;;;23.00;74.10;;;;;;5092912;28;20428;-81
2023/06/04 05:45:02;;;;;;;1.10;0.93;;;22.90;74.20;;;;;;5092745;28;20463;-82
2023/06/04 05:47:31;;;;;;;1.20;1.00;;;22.90;74.10;;;;;;5093133;28;20458;-92
2023/06/04 05:49:59;;;;;;;1.20;0.90;;;23.00;73.40;;;;;;5092807;28;20441;-82
2023/06/04 05:52:26;;;;;;;1.10;0.90;;;23.00;73.30;;;;;;5092806;28;20439;-81
2023/06/04 05:54:52;;;;;;;1.10;0.80;;;23.00;74.40;;;;;;5092862;28;20441;-81
2023/06/04 05:57:19;;;;;;;1.10;0.80;;;23.00;73.60;;;;;;5094784;28;20440;-81
2023/06/04 05:59:46;;;;;;;1.20;0.90;;;23.00;73.60;;;;;;5096618;28;20477;-81
2023/06/04 06:02:14;;;;;;;1.10;0.90;;;23.00;73.30;;;;;;5096650;28;20447;-81
2023/06/04 06:04:41;;;;;;;1.40;1.00;;;23.00;73.40;;;;;;5096505;28;20497;-82
2023/06/04 06:07:09;;;;;;;1.20;0.90;;;23.00;73.20;;;;;;5096475;28;20456;-82
2023/06/04 06:09:36;;;;;;;1.47;0.90;;;23.00;73.30;;;;;;5096884;28;20442;-82
2023/06/04 06:12:03;;;;;;;1.00;0.90;;;23.00;73.30;;;;;;5096540;28;20432;-81
2023/06/04 06:14:30;;;;;;;1.10;0.97;;;23.00;73.20;;;;;;5096446;28;20547;-81
2023/06/04 06:16:57;;;;;;;1.10;0.80;;;23.00;73.20;;;;;;5096283;28;20436;-81
2023/06/04 06:19:24;;;;;;;1.10;0.90;;;23.00;74.20;;;;;;5096242;28;21003;-81
2023/06/04 06:21:51;;;;;;;1.20;0.90;;;23.00;73.70;;;;;;5096345;28;20506;-82
2023/06/04 06:24:19;;;;;;;1.10;0.80;;;23.00;73.80;;;;;;5096363;28;20447;-82
2023/06/04 06:26:46;;;;;;;1.20;0.90;;;23.00;73.50;;;;;;5096317;28;20444;-81
2023/06/04 06:29:13;;;;;;;1.40;0.90;;;23.00;73.50;;;;;;5096172;28;20435;-81
2023/06/04 06:31:40;;;;;;;1.10;0.90;;;23.00;73.80;;;;;;5096166;28;20926;-82
2023/06/04 06:34:07;;;;;;;1.10;0.90;;;23.00;74.40;;;;;;5095743;28;21009;-82
2023/06/04 06:36:33;;;;;;;1.20;1.00;;;23.00;74.50;;;;;;5095990;28;20527;-81
2023/06/04 06:39:00;;;;;;;1.20;1.00;;;23.00;74.60;;;;;;5095969;28;20437;-82
2023/06/04 06:41:30;;;;;;;1.10;0.80;;;23.10;74.60;;;;;;5095932;28;20497;-81
2023/06/04 06:43:57;;;;;;;1.50;1.00;;;23.00;74.60;;;;;;5095800;28;20441;-81
2023/06/04 06:46:24;;;;;;;1.53;0.93;;;23.00;74.50;;;;;;5095713;28;20834;-82
2023/06/04 06:48:51;;;;;;;1.40;0.90;;;23.00;74.10;;;;;;5095641;28;20446;-82
2023/06/04 06:51:18;;;;;;;1.30;1.07;;;23.00;74.50;;;;;;5095744;28;20448;-81
2023/06/04 06:53:45;;;;;;;1.20;0.90;;;23.00;75.10;;;;;;5095643;28;20436;-82
2023/06/04 06:56:12;;;;;;;1.20;0.97;;;23.00;75.00;;;;;;5095734;28;20437;-82
2023/06/04 06:58:40;;;;;;;1.10;0.80;;;23.00;74.50;;;;;;5095599;28;20440;-81
2023/06/04 07:01:06;;;;;;;1.20;1.00;;;23.00;74.40;;;;;;5095398;28;20523;-81
2023/06/04 07:03:33;;;;;;;1.10;1.00;;;23.00;73.90;;;;;;5095499;28;20436;-81
2023/06/04 07:06:01;;;;;;;1.83;0.90;;;23.20;73.40;;;;;;5095394;28;20445;-81
2023/06/04 07:08:28;;;;;;;1.33;0.80;;;23.00;73.60;;;;;;5095059;28;20443;-81
2023/06/04 07:10:55;;;;;;;1.20;1.07;;;23.00;73.90;;;;;;5095321;28;20452;-81
2023/06/04 07:13:21;;;;;;;1.10;0.93;;;23.00;73.60;;;;;;5094999;28;20450;-83
2023/06/04 07:15:50;;;;;;;4.30;1.20;;;23.20;74.00;;;;;;5094422;28;20458;-82
2023/06/04 07:18:16;;;;;;;14.37;2.40;;;23.00;73.70;;;;;;5095316;28;20549;-81
2023/06/04 07:20:43;;;;;;;1.80;1.57;;;23.00;72.80;;;;;;5095034;28;20485;-83
2023/06/04 07:23:10;;;;;;;4.23;1.83;;;23.00;72.30;;;;;;5094426;28;20533;-82
2023/06/04 07:25:37;;;;;;;2.70;1.70;;;23.00;72.40;;;;;;5095088;28;20447;-82
2023/06/04 07:28:04;;;;;;;2.90;2.10;;;22.90;72.30;;;;;;5094953;28;20805;-82
2023/06/04 07:30:32;;;;;;;2.53;1.90;;;22.80;72.30;;;;;;5094951;28;20880;-81
2023/06/04 07:33:00;;;;;;;2.10;1.93;;;22.80;72.60;;;;;;5094377;28;20477;-80
2023/06/04 07:35:27;;;;;;;2.37;2.00;;;22.80;72.80;;;;;;5094775;28;20450;-81
2023/06/04 07:37:54;;;;;;;2.97;1.97;;;22.80;73.40;;;;;;5094991;28;20443;-84
2023/06/04 07:40:21;;;;;;;2.50;2.20;;;22.70;72.60;;;;;;5094615;28;20488;-88
2023/06/04 07:42:48;;;;;;;4.03;2.00;;;22.70;72.70;;;;;;5088624;28;20523;-83
2023/06/04 07:45:15;;;;;;;2.20;1.73;;;22.70;73.00;;;;;;5094034;28;20818;-83
2023/06/04 07:47:42;;;;;;;1.80;1.70;;;22.70;72.80;;;;;;5094384;28;20439;-83
2023/06/04 07:50:10;;;;;;;2.30;1.90;;;22.70;73.50;;;;;;5094949;28;20444;-83
2023/06/04 07:52:37;;;;;;;4.20;2.00;;;22.70;74.00;;;;;;5094497;28;20437;-83
2023/06/04 07:55:05;;;;;;;11.17;1.90;;;22.70;74.00;;;;;;5094727;28;20445;-84
2023/06/04 07:57:31;;;;;;;3.13;2.03;;;22.70;75.20;;;;;;5094550;28;20441;-83
2023/06/04 07:59:59;;;;;;;2.03;1.83;;;22.70;76.30;;;;;;5094496;28;20447;-83
2023/06/04 08:05:50;;;;;;;2.00;1.60;;;22.80;74.20;;;;;;5094216;28;20447;-83
2023/06/04 08:08:17;;;;;;;1.87;1.67;;;22.80;75.40;;;;;;5094034;28;20439;-83
2023/06/04 08:10:44;;;;;;;2.27;2.10;;;22.80;74.90;;;;;;5094030;28;20451;-83
2023/06/04 08:13:11;;;;;;;2.83;1.43;;;22.80;76.00;;;;;;5094200;28;20448;-84
2023/06/04 08:15:37;;;;;;;2.00;1.77;;;22.80;75.10;;;;;;5094004;28;20459;-84
2023/06/04 08:18:04;;;;;;;4.10;1.77;;;22.80;75.20;;;;;;5093949;28;20442;-84
2023/06/04 08:20:31;;;;;;;2.53;1.40;;;22.80;75.30;;;;;;5093090;28;20472;-84
2023/06/04 08:22:59;;;;;;;3.03;1.77;;;22.90;74.80;;;;;;5093604;28;20454;-92
2023/06/04 08:25:26;;;;;;;2.23;1.70;;;22.90;75.10;;;;;;5093737;28;20447;-85
2023/06/04 08:27:53;;;;;;;2.00;1.40;;;22.80;74.50;;;;;;5094236;28;20441;-84
2023/06/04 08:30:20;;;;;;;3.40;2.53;;;22.80;75.10;;;;;;5093645;28;20508;-83
2023/06/04 08:32:46;;;;;;;2.90;1.70;;;22.80;74.40;;;;;;5093333;28;21005;-85
2023/06/04 08:35:13;;;;;;;1.70;1.60;;;22.90;74.60;;;;;;5094070;28;20433;-85
2023/06/04 08:37:41;;;;;;;3.80;1.50;;;22.90;74.70;;;;;;5093253;28;20439;-84
2023/06/04 08:40:10;;;;;;;3.53;1.70;;;22.90;75.00;;;;;;5093715;28;20432;-83
2023/06/04 08:42:41;;;;;;;1.80;1.70;;;22.90;74.50;;;;;;5093355;28;20938;-82
2023/06/04 08:45:12;;;;;;;3.03;2.03;;;22.80;74.50;;;;;;5093575;28;20461;-87
2023/06/04 08:47:44;;;;;;;1.60;1.30;;;22.80;75.20;;;;;;5093437;28;20444;-86
2023/06/04 08:50:11;;;;;;;2.13;1.93;;;22.80;74.70;;;;;;5093306;28;20463;-82
2023/06/04 08:52:39;;;;;;;2.10;1.70;;;22.80;75.20;;;;;;5093509;28;20436;-83
2023/06/04 08:55:07;;;;;;;3.87;2.17;;;22.80;74.50;;;;;;5093084;28;20443;-82
2023/06/04 08:57:36;;;;;;;2.90;1.87;;;22.80;75.00;;;;;;5092825;28;20931;-82
2023/06/04 09:00:05;;;;;;;2.40;2.20;;;22.80;74.80;;;;;;5078301;28;20432;-83
2023/06/04 09:02:32;;;;;;;5.40;1.73;;;22.80;75.30;;;;;;5092790;28;21007;-84
2023/06/04 09:04:58;;;;;;;2.57;2.13;;;22.80;76.00;;;;;;5092907;28;20435;-83
2023/06/04 09:07:26;;;;;;;2.13;1.83;;;22.80;75.70;;;;;;5093434;28;20440;-82
2023/06/04 09:09:53;;;;;;;2.23;2.03;;;22.80;75.90;;;;;;5072912;28;20966;-85
2023/06/04 09:12:24;;;;;;;3.03;1.80;;;22.80;75.50;;;;;;5080061;28;20513;-87
2023/06/04 09:14:52;;;;;;;2.57;2.30;;;22.80;77.10;;;;;;5092931;28;20460;-85
2023/06/04 09:17:22;;;;;;;2.43;1.57;;;22.80;76.50;;;;;;5092862;28;20433;-83
2023/06/04 09:19:50;;;;;;;2.93;1.90;;;22.80;76.80;;;;;;5092602;28;20840;-85
2023/06/04 09:22:17;;;;;;;5.70;1.53;;;22.80;77.10;;;;;;5079966;28;20991;-80
2023/06/04 09:24:46;;;;;;;1.63;1.50;;;22.80;75.40;;;;;;5072811;28;20957;-82
2023/06/04 09:27:14;;;;;;;7.90;2.40;;;22.90;76.60;;;;;;5081579;28;20471;-83
2023/06/04 09:29:41;;;;;;;3.33;2.00;;;22.90;75.40;;;;;;5091453;28;20448;-86
2023/06/04 09:32:09;;;;;;;2.47;1.77;;;22.90;75.10;;;;;;5095526;28;20443;-83
2023/06/04 09:34:36;;;;;;;1.83;1.50;;;22.90;75.00;;;;;;5095141;28;20451;-82
2023/06/04 09:37:03;;;;;;;2.33;1.70;;;23.10;75.10;;;;;;5095579;28;20438;-82
2023/06/04 09:39:30;;;;;;;1.93;1.50;;;22.90;75.10;;;;;;5096183;28;20479;-82
2023/06/04 09:42:01;;;;;;;1.70;1.60;;;23.00;74.40;;;;;;5096895;28;20506;-90
2023/06/04 09:44:28;;;;;;;2.20;2.00;;;23.10;74.10;;;;;;5095409;28;20457;-82
2023/06/04 09:46:56;;;;;;;2.40;1.83;;;23.00;74.00;;;;;;5094646;28;20963;-82
2023/06/04 09:49:24;;;;;;;3.03;1.50;;;23.00;74.00;;;;;;5094724;28;20436;-82
2023/06/04 09:51:52;;;;;;;3.47;1.70;;;23.00;74.80;;;;;;5094507;28;20432;-82
2023/06/04 09:54:18;;;;;;;2.13;1.90;;;23.00;74.80;;;;;;5094530;28;20453;-82
2023/06/04 09:56:45;;;;;;;2.80;2.00;;;23.00;75.00;;;;;;5094670;28;20443;-82
2023/06/04 09:59:14;;;;;;;5.43;1.70;;;23.00;75.30;;;;;;5095450;28;20446;-82
2023/06/04 10:01:42;;;;;;;2.00;1.60;;;23.00;74.50;;;;;;5096701;28;20481;-82
2023/06/04 10:04:11;;;;;;;2.30;1.73;;;23.00;74.60;;;;;;5096569;28;20492;-82
2023/06/04 10:06:40;;;;;;;1.83;1.50;;;23.00;74.40;;;;;;5096768;28;20483;-82
2023/06/04 10:09:08;;;;;;;1.90;1.70;;;23.00;74.80;;;;;;5096433;28;20448;-91
2023/06/04 10:11:37;;;;;;;2.23;1.90;;;23.10;74.20;;;;;;5096580;28;20947;-82
2023/06/04 10:14:09;;;;;;;2.67;1.97;;;23.00;74.70;;;;;;5096442;28;20460;-83
2023/06/04 10:16:38;;;;;;;2.20;1.70;;;23.00;74.70;;;;;;5096411;28;20435;-90
2023/06/04 10:19:07;;;;;;;2.20;1.60;;;23.00;74.70;;;;;;5096349;28;20810;-82
2023/06/04 10:21:36;;;;;;;1.30;1.10;;;23.00;74.80;;;;;;5096273;28;20974;-82
2023/06/04 10:24:05;;;;;;;2.37;1.60;;;23.00;75.10;;;;;;5096162;28;20444;-82
2023/06/04 10:26:35;;;;;;;1.60;1.30;;;23.00;75.30;;;;;;5096455;28;20444;-82
2023/06/04 10:29:02;;;;;;;5.83;1.70;;;23.00;75.10;;;;;;5096154;28;20446;-82
2023/06/04 10:31:29;;;;;;;2.20;1.63;;;23.00;75.40;;;;;;5096097;28;20441;-82
2023/06/04 10:33:57;;;;;;;1.77;1.57;;;23.00;74.80;;;;;;5096093;28;20476;-82
2023/06/04 10:36:25;;;;;;;1.53;1.40;;;23.00;75.00;;;;;;5095860;28;20423;-82
2023/06/04 10:38:53;;;;;;;1.70;1.60;;;23.00;75.50;;;;;;5096004;28;20439;-82
2023/06/04 10:41:22;;;;;;;3.93;1.70;;;23.00;74.40;;;;;;5095409;28;21021;-82
2023/06/04 10:43:50;;;;;;;3.20;1.90;;;23.00;74.90;;;;;;5094908;28;20454;-82
2023/06/04 10:46:18;;;;;;;1.60;1.37;;;23.00;74.10;;;;;;5095788;28;20453;-82
2023/06/04 10:48:49;;;;;;;3.50;2.10;;;23.00;75.30;;;;;;5095816;28;20431;-83
2023/06/04 10:51:17;;;;;;;2.80;1.70;;;23.10;76.00;;;;;;5095740;28;20449;-82
2023/06/04 10:53:44;;;;;;;1.40;1.27;;;23.00;75.50;;;;;;5095809;28;20436;-82
2023/06/04 10:56:10;;;;;;;1.80;1.50;;;23.00;75.00;;;;;;5095588;28;20432;-82
2023/06/04 10:58:39;;;;;;;1.83;1.57;;;23.10;75.40;;;;;;5095619;28;20922;-82
2023/06/04 11:01:05;;;;;;;1.87;1.60;;;23.10;75.00;;;;;;5095412;28;20441;-90
2023/06/04 11:03:38;;;;;;;1.73;1.63;;;23.00;74.30;;;;;;5095336;28;20448;-82
2023/06/04 11:06:17;;;;;;;1.80;1.63;;;23.00;74.50;;;;;;5095270;28;20436;-82
2023/06/04 11:08:44;;;;;;;1.73;1.63;;;23.00;74.80;;;;;;5095312;28;20447;-90
2023/06/04 11:11:15;;;;;;;2.50;1.30;;;23.00;74.90;;;;;;5095198;28;20449;-90
2023/06/04 11:13:44;;;;;;;2.07;1.53;;;23.20;75.00;;;;;;5094976;28;20451;-82
2023/06/04 11:16:17;;;;;;;1.80;1.70;;;23.00;73.60;;;;;;5095222;28;20441;-82
2023/06/04 11:18:44;;;;;;;2.87;1.87;;;23.10;74.10;;;;;;5095187;28;20437;-82
2023/06/04 11:21:14;;;;;;;1.70;1.60;;;23.10;74.00;;;;;;5095135;28;20534;-82
2023/06/04 11:23:42;;;;;;;1.33;1.23;;;23.10;75.00;;;;;;5095070;28;20532;-83
2023/06/04 11:26:08;;;;;;;1.70;1.60;;;23.10;73.80;;;;;;5095060;28;20471;-83
2023/06/04 11:28:35;;;;;;;2.07;1.73;;;23.10;73.80;;;;;;5094900;28;20440;-82
2023/06/04 11:31:05;;;;;;;1.60;1.20;;;23.10;74.00;;;;;;5094897;28;20775;-82
2023/06/04 11:33:43;;;;;;;1.60;1.20;;;23.10;73.40;;;;;;5094724;28;20511;-82
2023/06/04 11:36:10;;;;;;;2.57;1.40;;;23.10;73.80;;;;;;5094802;28;20446;-82
2023/06/04 11:38:37;;;;;;;2.33;1.30;;;23.10;73.00;;;;;;5095001;28;20453;-82
2023/06/04 11:41:05;;;;;;;2.00;1.57;;;23.20;73.30;;;;;;5094660;28;20437;-84
2023/06/04 11:43:34;;;;;;;1.60;1.50;;;23.10;74.00;;;;;;5094661;28;20443;-83
2023/06/04 11:46:07;;;;;;;2.00;1.30;;;23.10;73.80;;;;;;5094725;28;20833;-83
2023/06/04 11:48:35;;;;;;;1.33;1.23;;;23.10;73.90;;;;;;5094675;28;20433;-83
2023/06/04 11:51:07;;;;;;;1.33;1.23;;;23.10;74.40;;;;;;5094524;28;20444;-90
2023/06/04 11:53:35;;;;;;;2.47;1.93;;;23.10;75.50;;;;;;5093896;28;20505;-82
2023/06/04 11:56:02;;;;;;;3.50;2.07;;;23.10;74.30;;;;;;5093929;28;20436;-82
2023/06/04 11:58:29;;;;;;;1.80;1.37;;;23.10;74.20;;;;;;5094359;28;20525;-83
2023/06/04 12:00:56;;;;;;;2.10;1.83;;;23.10;74.20;;;;;;5094338;28;20437;-83
2023/06/04 12:03:37;;;;;;;1.50;1.40;;;23.10;73.50;;;;;;5094183;28;20494;-87
2023/06/04 12:06:15;;;;;;;1.90;1.50;;;23.10;73.80;;;;;;5094192;28;20432;-82
2023/06/04 12:08:49;;;;;;;1.60;1.33;;;23.10;75.40;;;;;;5094321;28;20444;-83
2023/06/04 12:11:27;;;;;;;2.03;1.50;;;23.10;74.30;;;;;;5094193;28;20795;-82
2023/06/04 12:13:55;;;;;;;1.80;1.30;;;23.10;75.80;;;;;;5094047;28;20792;-82
2023/06/04 12:16:22;;;;;;;2.43;1.60;;;23.10;75.40;;;;;;5094043;28;20441;-82
2023/06/04 12:18:51;;;;;;;1.60;1.50;;;23.10;75.60;;;;;;5093886;28;20460;-83
2023/06/04 12:21:27;;;;;;;1.50;1.40;;;23.10;76.20;;;;;;5093931;28;20439;-83
2023/06/04 12:23:56;;;;;;;1.33;1.17;;;23.10;75.10;;;;;;5093844;28;20439;-83
2023/06/04 12:26:30;;;;;;;2.30;1.63;;;23.10;75.60;;;;;;5093947;28;20443;-83
2023/06/04 12:29:00;;;;;;;1.93;1.50;;;23.10;76.60;;;;;;5093947;28;20447;-82
2023/06/04 12:31:32;;;;;;;2.50;1.20;;;23.10;74.00;;;;;;5093909;28;20446;-83
2023/06/04 12:34:02;;;;;;;1.60;1.50;;;23.10;75.10;;;;;;5093503;28;20994;-83
2023/06/04 12:36:29;;;;;;;1.90;1.27;;;23.10;75.30;;;;;;5093916;28;20445;-83
2023/06/04 12:39:00;;;;;;;2.60;1.40;;;23.10;75.20;;;;;;5093668;28;21062;-82
2023/06/04 12:41:26;;;;;;;1.50;1.40;;;23.20;74.50;;;;;;5093738;28;20444;-88
2023/06/04 12:43:53;;;;;;;1.40;1.30;;;23.30;74.60;;;;;;5093473;28;20494;-82
2023/06/04 12:46:21;;;;;;;1.70;1.10;;;23.10;74.50;;;;;;5093802;28;20432;-82
2023/06/04 12:48:48;;;;;;;1.30;1.20;;;23.10;74.50;;;;;;5093723;28;20813;-83
2023/06/04 12:51:16;;;;;;;1.30;1.17;;;23.10;74.80;;;;;;5093496;28;20441;-83
2023/06/04 12:53:43;;;;;;;1.30;1.17;;;23.10;75.00;;;;;;5093508;28;20444;-89
2023/06/04 12:56:11;;;;;;;1.50;1.40;;;23.10;75.10;;;;;;5093417;28;20435;-83